sensor_id;sensor_type;location;lat;lon;timestamp;P1;durP1;ratioP1;P2;durP2;ratioP2
15155;SDS011;7678;50.058;8.306;2022-12-04T00:01:21;20.47;;;15.13;;
15155;SDS011;7678;50.058;8.306;2022-12-04T00:03:51;20.30;;;14.47;;
15155;SDS011;7678;50.058;8.306;2022-12-04T00:06:20;20.53;;;14.60;;
15155;SDS011;7678;50.058;8.306;2022-12-04T00:08:50;22.30;;;15.67;;
15155;SDS011;7678;50.058;8.306;2022-12-04T00:11:19;20.70;;;14.33;;
15155;SDS011;7678;50.058;8.306;2022-12-04T00:13:49;20.10;;;14.43;;
15155;SDS011;7678;50.058;8.306;2022-12-04T00:16:18;19.37;;;14.90;;
15155;SDS011;7678;50.058;8.306;2022-12-04T00:18:47;20.80;;;15.07;;
15155;SDS011;7678;50.058;8.306;2022-12-04T00:21:16;22.50;;;14.77;;
15155;SDS011;7678;50.058;8.306;2022-12-04T00:23:45;21.83;;;15.67;;
15155;SDS011;7678;50.058;8.306;2022-12-04T00:26:16;21.33;;;15.03;;
15155;SDS011;7678;50.058;8.306;2022-12-04T00:28:45;23.03;;;15.53;;
15155;SDS011;7678;50.058;8.306;2022-12-04T00:31:14;23.10;;;15.43;;
15155;SDS011;7678;50.058;8.306;2022-12-04T00:33:44;23.33;;;15.37;;
15155;SDS011;7678;50.058;8.306;2022-12-04T00:36:13;21.23;;;15.37;;
15155;SDS011;7678;50.058;8.306;2022-12-04T00:38:42;18.77;;;13.70;;
15155;SDS011;7678;50.058;8.306;2022-12-04T00:41:11;22.17;;;14.80;;
15155;SDS011;7678;50.058;8.306;2022-12-04T00:43:41;22.27;;;14.97;;
15155;SDS011;7678;50.058;8.306;2022-12-04T00:46:11;21.77;;;15.67;;
15155;SDS011;7678;50.058;8.306;2022-12-04T00:48:39;25.63;;;17.13;;
15155;SDS011;7678;50.058;8.306;2022-12-04T00:51:09;23.50;;;16.47;;
15155;SDS011;7678;50.058;8.306;2022-12-04T00:53:38;23.07;;;16.10;;
15155;SDS011;7678;50.058;8.306;2022-12-04T00:56:07;20.10;;;16.07;;
15155;SDS011;7678;50.058;8.306;2022-12-04T00:58:36;21.10;;;15.73;;
15155;SDS011;7678;50.058;8.306;2022-12-04T01:01:07;22.47;;;16.20;;
15155;SDS011;7678;50.058;8.306;2022-12-04T01:03:36;21.30;;;15.33;;
15155;SDS011;7678;50.058;8.306;2022-12-04T01:06:05;22.70;;;16.07;;
15155;SDS011;7678;50.058;8.306;2022-12-04T01:08:34;20.93;;;15.87;;
15155;SDS011;7678;50.058;8.306;2022-12-04T01:11:04;21.90;;;15.77;;
15155;SDS011;7678;50.058;8.306;2022-12-04T01:13:32;22.00;;;15.20;;
15155;SDS011;7678;50.058;8.306;2022-12-04T01:16:00;22.47;;;16.10;;
15155;SDS011;7678;50.058;8.306;2022-12-04T01:18:31;21.30;;;15.97;;
15155;SDS011;7678;50.058;8.306;2022-12-04T01:20:59;23.37;;;16.67;;
15155;SDS011;7678;50.058;8.306;2022-12-04T01:23:27;21.80;;;16.03;;
15155;SDS011;7678;50.058;8.306;2022-12-04T01:25:56;23.40;;;15.83;;
15155;SDS011;7678;50.058;8.306;2022-12-04T01:28:25;20.97;;;15.13;;
15155;SDS011;7678;50.058;8.306;2022-12-04T01:31:00;24.17;;;16.60;;
15155;SDS011;7678;50.058;8.306;2022-12-04T01:33:30;19.67;;;15.13;;
15155;SDS011;7678;50.058;8.306;2022-12-04T01:35:59;22.00;;;15.13;;
15155;SDS011;7678;50.058;8.306;2022-12-04T01:38:28;19.67;;;13.97;;
15155;SDS011;7678;50.058;8.306;2022-12-04T01:40:58;21.00;;;15.30;;
15155;SDS011;7678;50.058;8.306;2022-12-04T01:43:28;23.10;;;16.13;;
15155;SDS011;7678;50.058;8.306;2022-12-04T01:45:59;21.73;;;15.03;;
15155;SDS011;7678;50.058;8.306;2022-12-04T01:48:28;21.87;;;15.17;;
15155;SDS011;7678;50.058;8.306;2022-12-04T01:51:01;19.43;;;14.60;;
15155;SDS011;7678;50.058;8.306;2022-12-04T01:53:37;20.80;;;15.03;;
15155;SDS011;7678;50.058;8.306;2022-12-04T01:56:08;20.60;;;15.27;;
15155;SDS011;7678;50.058;8.306;2022-12-04T01:58:38;20.13;;;14.70;;
15155;SDS011;7678;50.058;8.306;2022-12-04T02:01:08;19.47;;;14.87;;
15155;SDS011;7678;50.058;8.306;2022-12-04T02:03:38;19.20;;;14.30;;
15155;SDS011;7678;50.058;8.306;2022-12-04T02:06:06;20.73;;;15.90;;
15155;SDS011;7678;50.058;8.306;2022-12-04T02:08:34;20.60;;;15.40;;
15155;SDS011;7678;50.058;8.306;2022-12-04T02:11:06;20.27;;;15.20;;
15155;SDS011;7678;50.058;8.306;2022-12-04T02:13:41;21.10;;;15.77;;
15155;SDS011;7678;50.058;8.306;2022-12-04T02:16:21;21.30;;;15.57;;
15155;SDS011;7678;50.058;8.306;2022-12-04T02:18:56;22.90;;;15.20;;
15155;SDS011;7678;50.058;8.306;2022-12-04T02:21:34;21.00;;;15.17;;
15155;SDS011;7678;50.058;8.306;2022-12-04T02:27:00;18.87;;;14.33;;
15155;SDS011;7678;50.058;8.306;2022-12-04T02:29:34;19.17;;;13.90;;
15155;SDS011;7678;50.058;8.306;2022-12-04T02:32:08;18.60;;;14.07;;
15155;SDS011;7678;50.058;8.306;2022-12-04T02:34:44;17.77;;;14.03;;
15155;SDS011;7678;50.058;8.306;2022-12-04T02:37:20;19.10;;;14.27;;
15155;SDS011;7678;50.058;8.306;2022-12-04T02:39:53;18.23;;;13.67;;
15155;SDS011;7678;50.058;8.306;2022-12-04T02:42:28;20.40;;;14.80;;
15155;SDS011;7678;50.058;8.306;2022-12-04T02:45:03;19.87;;;14.93;;
15155;SDS011;7678;50.058;8.306;2022-12-04T02:47:44;19.37;;;15.10;;
15155;SDS011;7678;50.058;8.306;2022-12-04T02:50:14;19.83;;;14.23;;
15155;SDS011;7678;50.058;8.306;2022-12-04T02:52:45;19.00;;;14.43;;
15155;SDS011;7678;50.058;8.306;2022-12-04T02:55:17;23.10;;;15.20;;
15155;SDS011;7678;50.058;8.306;2022-12-04T02:57:49;19.43;;;13.80;;
15155;SDS011;7678;50.058;8.306;2022-12-04T03:00:23;16.20;;;13.00;;
15155;SDS011;7678;50.058;8.306;2022-12-04T03:02:53;21.63;;;13.63;;
15155;SDS011;7678;50.058;8.306;2022-12-04T03:05:34;19.93;;;14.43;;
15155;SDS011;7678;50.058;8.306;2022-12-04T03:08:09;17.73;;;13.83;;
15155;SDS011;7678;50.058;8.306;2022-12-04T03:10:43;19.07;;;13.57;;
15155;SDS011;7678;50.058;8.306;2022-12-04T03:13:15;18.67;;;14.17;;
15155;SDS011;7678;50.058;8.306;2022-12-04T03:15:48;20.33;;;14.03;;
15155;SDS011;7678;50.058;8.306;2022-12-04T03:18:21;19.17;;;14.17;;
15155;SDS011;7678;50.058;8.306;2022-12-04T03:21:01;21.40;;;14.77;;
15155;SDS011;7678;50.058;8.306;2022-12-04T03:23:33;20.70;;;14.87;;
15155;SDS011;7678;50.058;8.306;2022-12-04T03:26:06;18.67;;;14.17;;
15155;SDS011;7678;50.058;8.306;2022-12-04T03:28:44;20.83;;;14.67;;
15155;SDS011;7678;50.058;8.306;2022-12-04T03:31:21;20.03;;;15.10;;
15155;SDS011;7678;50.058;8.306;2022-12-04T03:33:55;18.83;;;14.40;;
15155;SDS011;7678;50.058;8.306;2022-12-04T03:36:30;18.70;;;14.23;;
15155;SDS011;7678;50.058;8.306;2022-12-04T03:39:04;18.37;;;14.07;;
15155;SDS011;7678;50.058;8.306;2022-12-04T03:41:40;17.63;;;13.47;;
15155;SDS011;7678;50.058;8.306;2022-12-04T03:44:21;16.53;;;13.17;;
15155;SDS011;7678;50.058;8.306;2022-12-04T03:46:54;19.57;;;14.67;;
15155;SDS011;7678;50.058;8.306;2022-12-04T03:49:27;19.67;;;14.33;;
15155;SDS011;7678;50.058;8.306;2022-12-04T03:51:59;18.60;;;13.70;;
15155;SDS011;7678;50.058;8.306;2022-12-04T03:54:31;18.50;;;14.07;;
15155;SDS011;7678;50.058;8.306;2022-12-04T03:57:02;20.40;;;14.23;;
15155;SDS011;7678;50.058;8.306;2022-12-04T03:59:35;17.00;;;13.23;;
15155;SDS011;7678;50.058;8.306;2022-12-04T04:02:09;17.80;;;13.93;;
15155;SDS011;7678;50.058;8.306;2022-12-04T04:04:42;18.67;;;13.63;;
15155;SDS011;7678;50.058;8.306;2022-12-04T04:07:20;16.80;;;12.60;;
15155;SDS011;7678;50.058;8.306;2022-12-04T04:10:01;17.80;;;13.03;;
15155;SDS011;7678;50.058;8.306;2022-12-04T04:12:33;15.07;;;12.43;;
15155;SDS011;7678;50.058;8.306;2022-12-04T04:15:10;17.17;;;13.40;;
15155;SDS011;7678;50.058;8.306;2022-12-04T04:17:59;17.93;;;14.27;;
15155;SDS011;7678;50.058;8.306;2022-12-04T04:20:46;16.73;;;13.10;;
15155;SDS011;7678;50.058;8.306;2022-12-04T04:23:42;17.47;;;13.83;;
15155;SDS011;7678;50.058;8.306;2022-12-04T04:26:49;17.77;;;13.13;;
15155;SDS011;7678;50.058;8.306;2022-12-04T04:29:17;19.73;;;14.13;;
15155;SDS011;7678;50.058;8.306;2022-12-04T04:31:46;19.67;;;14.20;;
15155;SDS011;7678;50.058;8.306;2022-12-04T04:34:22;17.97;;;13.97;;
15155;SDS011;7678;50.058;8.306;2022-12-04T04:37:00;18.40;;;13.97;;
15155;SDS011;7678;50.058;8.306;2022-12-04T04:39:33;17.77;;;13.67;;
15155;SDS011;7678;50.058;8.306;2022-12-04T04:42:07;17.63;;;13.20;;
15155;SDS011;7678;50.058;8.306;2022-12-04T04:44:44;18.40;;;13.70;;
15155;SDS011;7678;50.058;8.306;2022-12-04T04:47:20;19.77;;;14.87;;
15155;SDS011;7678;50.058;8.306;2022-12-04T04:49:53;20.10;;;14.10;;
15155;SDS011;7678;50.058;8.306;2022-12-04T04:52:23;19.53;;;14.40;;
15155;SDS011;7678;50.058;8.306;2022-12-04T04:54:52;17.90;;;13.90;;
15155;SDS011;7678;50.058;8.306;2022-12-04T04:57:27;20.80;;;14.33;;
15155;SDS011;7678;50.058;8.306;2022-12-04T04:59:56;18.87;;;14.13;;
15155;SDS011;7678;50.058;8.306;2022-12-04T05:02:25;20.80;;;14.43;;
15155;SDS011;7678;50.058;8.306;2022-12-04T05:04:55;19.27;;;13.93;;
15155;SDS011;7678;50.058;8.306;2022-12-04T05:07:23;19.27;;;13.67;;
15155;SDS011;7678;50.058;8.306;2022-12-04T05:09:51;21.50;;;14.63;;
15155;SDS011;7678;50.058;8.306;2022-12-04T05:12:19;20.73;;;15.50;;
15155;SDS011;7678;50.058;8.306;2022-12-04T05:14:47;18.40;;;14.07;;
15155;SDS011;7678;50.058;8.306;2022-12-04T05:17:15;18.10;;;13.10;;
15155;SDS011;7678;50.058;8.306;2022-12-04T05:19:44;18.37;;;13.80;;
15155;SDS011;7678;50.058;8.306;2022-12-04T05:22:23;19.50;;;13.17;;
15155;SDS011;7678;50.058;8.306;2022-12-04T05:24:52;19.33;;;14.10;;
15155;SDS011;7678;50.058;8.306;2022-12-04T05:27:20;19.00;;;14.20;;
15155;SDS011;7678;50.058;8.306;2022-12-04T05:29:50;20.43;;;15.00;;
15155;SDS011;7678;50.058;8.306;2022-12-04T05:32:20;19.73;;;13.50;;
15155;SDS011;7678;50.058;8.306;2022-12-04T05:34:48;17.87;;;13.60;;
15155;SDS011;7678;50.058;8.306;2022-12-04T05:37:17;18.93;;;13.83;;
15155;SDS011;7678;50.058;8.306;2022-12-04T05:39:47;18.77;;;14.10;;
15155;SDS011;7678;50.058;8.306;2022-12-04T05:42:15;19.53;;;14.27;;
15155;SDS011;7678;50.058;8.306;2022-12-04T05:44:43;20.10;;;14.33;;
15155;SDS011;7678;50.058;8.306;2022-12-04T05:47:11;19.77;;;13.07;;
15155;SDS011;7678;50.058;8.306;2022-12-04T05:49:39;18.47;;;13.63;;
15155;SDS011;7678;50.058;8.306;2022-12-04T05:52:07;20.43;;;14.47;;
15155;SDS011;7678;50.058;8.306;2022-12-04T05:54:35;19.07;;;14.37;;
15155;SDS011;7678;50.058;8.306;2022-12-04T05:57:05;19.07;;;13.53;;
15155;SDS011;7678;50.058;8.306;2022-12-04T05:59:33;18.37;;;14.10;;
15155;SDS011;7678;50.058;8.306;2022-12-04T06:02:02;18.87;;;14.10;;
15155;SDS011;7678;50.058;8.306;2022-12-04T06:04:30;22.63;;;14.87;;
15155;SDS011;7678;50.058;8.306;2022-12-04T06:06:58;20.00;;;14.07;;
15155;SDS011;7678;50.058;8.306;2022-12-04T06:09:26;18.57;;;13.60;;
15155;SDS011;7678;50.058;8.306;2022-12-04T06:11:55;19.20;;;14.33;;
15155;SDS011;7678;50.058;8.306;2022-12-04T06:14:25;20.17;;;15.00;;
15155;SDS011;7678;50.058;8.306;2022-12-04T06:16:53;22.20;;;15.20;;
15155;SDS011;7678;50.058;8.306;2022-12-04T06:19:22;19.07;;;14.27;;
15155;SDS011;7678;50.058;8.306;2022-12-04T06:21:50;19.77;;;14.43;;
15155;SDS011;7678;50.058;8.306;2022-12-04T06:24:20;19.67;;;14.00;;
15155;SDS011;7678;50.058;8.306;2022-12-04T06:26:54;18.43;;;14.20;;
15155;SDS011;7678;50.058;8.306;2022-12-04T06:29:44;22.13;;;14.93;;
15155;SDS011;7678;50.058;8.306;2022-12-04T06:32:12;22.13;;;14.90;;
15155;SDS011;7678;50.058;8.306;2022-12-04T06:34:48;17.50;;;13.17;;
15155;SDS011;7678;50.058;8.306;2022-12-04T06:37:17;18.93;;;13.63;;
15155;SDS011;7678;50.058;8.306;2022-12-04T06:39:45;17.00;;;13.00;;
15155;SDS011;7678;50.058;8.306;2022-12-04T06:42:13;18.23;;;12.93;;
15155;SDS011;7678;50.058;8.306;2022-12-04T06:44:41;18.33;;;13.60;;
15155;SDS011;7678;50.058;8.306;2022-12-04T06:47:11;17.43;;;13.23;;
15155;SDS011;7678;50.058;8.306;2022-12-04T06:49:38;18.13;;;13.37;;
15155;SDS011;7678;50.058;8.306;2022-12-04T06:52:06;19.67;;;13.57;;
15155;SDS011;7678;50.058;8.306;2022-12-04T06:54:34;15.23;;;12.00;;
15155;SDS011;7678;50.058;8.306;2022-12-04T06:57:02;15.33;;;11.97;;
15155;SDS011;7678;50.058;8.306;2022-12-04T06:59:30;16.37;;;12.30;;
15155;SDS011;7678;50.058;8.306;2022-12-04T07:01:59;18.10;;;13.27;;
15155;SDS011;7678;50.058;8.306;2022-12-04T07:04:28;17.73;;;13.83;;
15155;SDS011;7678;50.058;8.306;2022-12-04T07:06:56;19.47;;;13.43;;
15155;SDS011;7678;50.058;8.306;2022-12-04T07:09:24;17.03;;;13.53;;
15155;SDS011;7678;50.058;8.306;2022-12-04T07:11:54;16.57;;;12.97;;
15155;SDS011;7678;50.058;8.306;2022-12-04T07:14:22;14.50;;;11.30;;
15155;SDS011;7678;50.058;8.306;2022-12-04T07:16:50;18.13;;;12.33;;
15155;SDS011;7678;50.058;8.306;2022-12-04T07:19:18;17.97;;;13.30;;
15155;SDS011;7678;50.058;8.306;2022-12-04T07:21:47;15.77;;;11.63;;
15155;SDS011;7678;50.058;8.306;2022-12-04T07:24:16;17.53;;;12.50;;
15155;SDS011;7678;50.058;8.306;2022-12-04T07:26:44;17.33;;;11.90;;
15155;SDS011;7678;50.058;8.306;2022-12-04T07:29:12;20.23;;;13.33;;
15155;SDS011;7678;50.058;8.306;2022-12-04T07:31:40;17.50;;;12.63;;
15155;SDS011;7678;50.058;8.306;2022-12-04T07:34:09;17.73;;;12.47;;
15155;SDS011;7678;50.058;8.306;2022-12-04T07:36:37;16.50;;;11.97;;
15155;SDS011;7678;50.058;8.306;2022-12-04T07:39:08;13.40;;;10.67;;
15155;SDS011;7678;50.058;8.306;2022-12-04T07:41:36;16.77;;;11.40;;
15155;SDS011;7678;50.058;8.306;2022-12-04T07:44:04;14.87;;;10.63;;
15155;SDS011;7678;50.058;8.306;2022-12-04T07:46:32;15.20;;;11.27;;
15155;SDS011;7678;50.058;8.306;2022-12-04T07:49:01;17.50;;;12.23;;
15155;SDS011;7678;50.058;8.306;2022-12-04T07:51:29;15.03;;;10.93;;
15155;SDS011;7678;50.058;8.306;2022-12-04T07:53:57;16.03;;;10.90;;
15155;SDS011;7678;50.058;8.306;2022-12-04T07:56:30;14.83;;;10.27;;
15155;SDS011;7678;50.058;8.306;2022-12-04T07:58:58;16.67;;;10.40;;
15155;SDS011;7678;50.058;8.306;2022-12-04T08:01:27;12.97;;;10.47;;
15155;SDS011;7678;50.058;8.306;2022-12-04T08:03:56;15.27;;;10.73;;
15155;SDS011;7678;50.058;8.306;2022-12-04T08:06:26;13.73;;;9.87;;
15155;SDS011;7678;50.058;8.306;2022-12-04T08:08:55;13.50;;;10.37;;
15155;SDS011;7678;50.058;8.306;2022-12-04T08:11:24;15.03;;;10.23;;
15155;SDS011;7678;50.058;8.306;2022-12-04T08:13:55;12.97;;;9.57;;
15155;SDS011;7678;50.058;8.306;2022-12-04T08:16:28;13.93;;;9.70;;
15155;SDS011;7678;50.058;8.306;2022-12-04T08:18:57;12.70;;;9.50;;
15155;SDS011;7678;50.058;8.306;2022-12-04T08:21:26;11.97;;;8.77;;
15155;SDS011;7678;50.058;8.306;2022-12-04T08:23:56;13.37;;;10.30;;
15155;SDS011;7678;50.058;8.306;2022-12-04T08:26:25;15.60;;;10.50;;
15155;SDS011;7678;50.058;8.306;2022-12-04T08:28:56;14.67;;;10.27;;
15155;SDS011;7678;50.058;8.306;2022-12-04T08:31:27;15.23;;;9.60;;
15155;SDS011;7678;50.058;8.306;2022-12-04T08:33:58;13.90;;;9.27;;
15155;SDS011;7678;50.058;8.306;2022-12-04T08:36:28;17.37;;;11.47;;
15155;SDS011;7678;50.058;8.306;2022-12-04T08:38:56;17.10;;;11.03;;
15155;SDS011;7678;50.058;8.306;2022-12-04T08:41:24;13.40;;;9.33;;
15155;SDS011;7678;50.058;8.306;2022-12-04T08:43:53;12.37;;;9.03;;
15155;SDS011;7678;50.058;8.306;2022-12-04T08:46:24;12.70;;;9.60;;
15155;SDS011;7678;50.058;8.306;2022-12-04T08:48:54;13.67;;;9.77;;
15155;SDS011;7678;50.058;8.306;2022-12-04T08:51:25;13.10;;;9.57;;
15155;SDS011;7678;50.058;8.306;2022-12-04T08:53:57;12.17;;;9.40;;
15155;SDS011;7678;50.058;8.306;2022-12-04T08:56:28;15.07;;;10.67;;
15155;SDS011;7678;50.058;8.306;2022-12-04T08:58:58;16.60;;;10.63;;
15155;SDS011;7678;50.058;8.306;2022-12-04T09:01:29;16.03;;;10.67;;
15155;SDS011;7678;50.058;8.306;2022-12-04T09:03:57;13.53;;;9.43;;
15155;SDS011;7678;50.058;8.306;2022-12-04T09:06:25;15.27;;;10.20;;
15155;SDS011;7678;50.058;8.306;2022-12-04T09:08:53;15.63;;;9.47;;
15155;SDS011;7678;50.058;8.306;2022-12-04T09:11:23;15.47;;;10.67;;
15155;SDS011;7678;50.058;8.306;2022-12-04T09:13:52;17.27;;;9.57;;
15155;SDS011;7678;50.058;8.306;2022-12-04T09:16:21;15.27;;;10.37;;
15155;SDS011;7678;50.058;8.306;2022-12-04T09:18:53;13.67;;;10.33;;
15155;SDS011;7678;50.058;8.306;2022-12-04T09:21:23;14.73;;;10.10;;
15155;SDS011;7678;50.058;8.306;2022-12-04T09:23:51;14.80;;;10.30;;
15155;SDS011;7678;50.058;8.306;2022-12-04T09:26:20;15.07;;;10.43;;
15155;SDS011;7678;50.058;8.306;2022-12-04T09:28:50;13.47;;;9.90;;
15155;SDS011;7678;50.058;8.306;2022-12-04T09:31:21;14.83;;;10.00;;
15155;SDS011;7678;50.058;8.306;2022-12-04T09:33:50;13.33;;;9.87;;
15155;SDS011;7678;50.058;8.306;2022-12-04T09:36:20;12.50;;;9.50;;
15155;SDS011;7678;50.058;8.306;2022-12-04T09:38:49;14.33;;;10.07;;
15155;SDS011;7678;50.058;8.306;2022-12-04T09:41:30;13.57;;;10.23;;
15155;SDS011;7678;50.058;8.306;2022-12-04T09:44:17;14.57;;;10.60;;
15155;SDS011;7678;50.058;8.306;2022-12-04T09:46:50;14.50;;;10.37;;
15155;SDS011;7678;50.058;8.306;2022-12-04T09:49:21;13.70;;;10.10;;
15155;SDS011;7678;50.058;8.306;2022-12-04T09:51:54;13.20;;;9.73;;
15155;SDS011;7678;50.058;8.306;2022-12-04T09:54:28;12.43;;;9.30;;
15155;SDS011;7678;50.058;8.306;2022-12-04T09:57:02;12.30;;;8.93;;
15155;SDS011;7678;50.058;8.306;2022-12-04T09:59:36;13.87;;;9.93;;
15155;SDS011;7678;50.058;8.306;2022-12-04T10:02:09;12.53;;;9.03;;
15155;SDS011;7678;50.058;8.306;2022-12-04T10:04:47;13.67;;;9.10;;
15155;SDS011;7678;50.058;8.306;2022-12-04T10:07:19;13.27;;;9.23;;
15155;SDS011;7678;50.058;8.306;2022-12-04T10:09:53;13.93;;;9.70;;
15155;SDS011;7678;50.058;8.306;2022-12-04T10:12:27;14.13;;;9.43;;
15155;SDS011;7678;50.058;8.306;2022-12-04T10:15:07;15.30;;;10.10;;
15155;SDS011;7678;50.058;8.306;2022-12-04T10:17:43;15.63;;;9.77;;
15155;SDS011;7678;50.058;8.306;2022-12-04T10:20:25;14.47;;;10.17;;
15155;SDS011;7678;50.058;8.306;2022-12-04T10:23:12;13.83;;;9.67;;
15155;SDS011;7678;50.058;8.306;2022-12-04T10:25:45;13.30;;;9.00;;
15155;SDS011;7678;50.058;8.306;2022-12-04T10:28:18;12.90;;;9.97;;
15155;SDS011;7678;50.058;8.306;2022-12-04T10:30:51;15.23;;;9.97;;
15155;SDS011;7678;50.058;8.306;2022-12-04T10:33:25;13.17;;;9.57;;
15155;SDS011;7678;50.058;8.306;2022-12-04T10:36:01;12.60;;;9.20;;
15155;SDS011;7678;50.058;8.306;2022-12-04T10:38:33;13.47;;;9.87;;
15155;SDS011;7678;50.058;8.306;2022-12-04T10:41:08;12.83;;;9.07;;
15155;SDS011;7678;50.058;8.306;2022-12-04T10:43:42;14.00;;;9.47;;
15155;SDS011;7678;50.058;8.306;2022-12-04T10:46:12;13.63;;;9.37;;
15155;SDS011;7678;50.058;8.306;2022-12-04T10:48:43;15.17;;;10.90;;
15155;SDS011;7678;50.058;8.306;2022-12-04T10:51:14;13.80;;;9.77;;
15155;SDS011;7678;50.058;8.306;2022-12-04T10:53:47;13.87;;;9.37;;
15155;SDS011;7678;50.058;8.306;2022-12-04T10:56:18;13.70;;;9.80;;
15155;SDS011;7678;50.058;8.306;2022-12-04T10:58:55;14.83;;;10.00;;
15155;SDS011;7678;50.058;8.306;2022-12-04T11:01:25;14.47;;;10.10;;
15155;SDS011;7678;50.058;8.306;2022-12-04T11:03:55;15.70;;;10.43;;
15155;SDS011;7678;50.058;8.306;2022-12-04T11:06:26;15.60;;;10.97;;
15155;SDS011;7678;50.058;8.306;2022-12-04T11:08:56;18.47;;;12.30;;
15155;SDS011;7678;50.058;8.306;2022-12-04T11:11:27;18.27;;;11.70;;
15155;SDS011;7678;50.058;8.306;2022-12-04T11:14:01;18.23;;;11.97;;
15155;SDS011;7678;50.058;8.306;2022-12-04T11:16:35;19.23;;;11.00;;
15155;SDS011;7678;50.058;8.306;2022-12-04T11:19:17;15.67;;;11.23;;
15155;SDS011;7678;50.058;8.306;2022-12-04T11:21:47;14.97;;;10.00;;
15155;SDS011;7678;50.058;8.306;2022-12-04T11:24:21;14.50;;;10.20;;
15155;SDS011;7678;50.058;8.306;2022-12-04T11:26:52;15.00;;;9.97;;
15155;SDS011;7678;50.058;8.306;2022-12-04T11:29:23;13.97;;;10.17;;
15155;SDS011;7678;50.058;8.306;2022-12-04T11:31:56;13.10;;;9.63;;
15155;SDS011;7678;50.058;8.306;2022-12-04T11:34:33;14.67;;;9.93;;
15155;SDS011;7678;50.058;8.306;2022-12-04T11:37:04;14.80;;;10.27;;
15155;SDS011;7678;50.058;8.306;2022-12-04T11:39:43;13.07;;;9.53;;
15155;SDS011;7678;50.058;8.306;2022-12-04T11:42:15;14.43;;;10.20;;
15155;SDS011;7678;50.058;8.306;2022-12-04T11:44:48;13.93;;;9.17;;
15155;SDS011;7678;50.058;8.306;2022-12-04T11:47:19;12.10;;;9.00;;
15155;SDS011;7678;50.058;8.306;2022-12-04T11:49:59;14.47;;;9.23;;
15155;SDS011;7678;50.058;8.306;2022-12-04T11:52:43;13.50;;;9.50;;
15155;SDS011;7678;50.058;8.306;2022-12-04T11:55:23;15.87;;;9.60;;
15155;SDS011;7678;50.058;8.306;2022-12-04T11:58:00;13.37;;;8.27;;
15155;SDS011;7678;50.058;8.306;2022-12-04T12:00:41;13.53;;;9.37;;
15155;SDS011;7678;50.058;8.306;2022-12-04T12:03:15;11.20;;;8.60;;
15155;SDS011;7678;50.058;8.306;2022-12-04T12:06:01;12.40;;;8.70;;
15155;SDS011;7678;50.058;8.306;2022-12-04T12:08:40;12.70;;;8.17;;
15155;SDS011;7678;50.058;8.306;2022-12-04T12:11:18;12.17;;;7.87;;
15155;SDS011;7678;50.058;8.306;2022-12-04T12:13:53;12.80;;;8.70;;
15155;SDS011;7678;50.058;8.306;2022-12-04T12:16:30;11.60;;;9.07;;
15155;SDS011;7678;50.058;8.306;2022-12-04T12:19:25;14.73;;;10.40;;
15155;SDS011;7678;50.058;8.306;2022-12-04T12:22:05;12.43;;;8.13;;
15155;SDS011;7678;50.058;8.306;2022-12-04T12:24:43;13.37;;;8.73;;
15155;SDS011;7678;50.058;8.306;2022-12-04T12:27:31;14.67;;;9.57;;
15155;SDS011;7678;50.058;8.306;2022-12-04T12:30:13;13.70;;;9.27;;
15155;SDS011;7678;50.058;8.306;2022-12-04T12:32:49;13.67;;;9.27;;
15155;SDS011;7678;50.058;8.306;2022-12-04T12:35:28;14.13;;;9.30;;
15155;SDS011;7678;50.058;8.306;2022-12-04T12:38:01;14.63;;;9.53;;
15155;SDS011;7678;50.058;8.306;2022-12-04T12:40:32;13.73;;;9.77;;
15155;SDS011;7678;50.058;8.306;2022-12-04T12:43:06;14.60;;;10.07;;
15155;SDS011;7678;50.058;8.306;2022-12-04T12:45:42;12.87;;;8.53;;
15155;SDS011;7678;50.058;8.306;2022-12-04T12:48:19;14.03;;;9.30;;
15155;SDS011;7678;50.058;8.306;2022-12-04T12:50:54;13.73;;;9.90;;
15155;SDS011;7678;50.058;8.306;2022-12-04T12:53:46;17.00;;;10.47;;
15155;SDS011;7678;50.058;8.306;2022-12-04T12:56:18;14.67;;;10.23;;
15155;SDS011;7678;50.058;8.306;2022-12-04T12:58:59;15.67;;;10.53;;
15155;SDS011;7678;50.058;8.306;2022-12-04T13:01:35;15.47;;;10.37;;
15155;SDS011;7678;50.058;8.306;2022-12-04T13:04:11;15.63;;;10.20;;
15155;SDS011;7678;50.058;8.306;2022-12-04T13:06:44;15.23;;;10.03;;
15155;SDS011;7678;50.058;8.306;2022-12-04T13:09:19;13.93;;;9.97;;
15155;SDS011;7678;50.058;8.306;2022-12-04T13:11:52;14.83;;;10.70;;
15155;SDS011;7678;50.058;8.306;2022-12-04T13:14:26;14.37;;;10.60;;
15155;SDS011;7678;50.058;8.306;2022-12-04T13:16:54;15.40;;;10.10;;
15155;SDS011;7678;50.058;8.306;2022-12-04T13:19:27;13.57;;;9.83;;
15155;SDS011;7678;50.058;8.306;2022-12-04T13:22:00;15.33;;;10.60;;
15155;SDS011;7678;50.058;8.306;2022-12-04T13:24:40;15.33;;;10.23;;
15155;SDS011;7678;50.058;8.306;2022-12-04T13:27:20;15.00;;;10.70;;
15155;SDS011;7678;50.058;8.306;2022-12-04T13:30:00;16.77;;;10.97;;
15155;SDS011;7678;50.058;8.306;2022-12-04T13:33:01;17.37;;;10.70;;
15155;SDS011;7678;50.058;8.306;2022-12-04T13:36:15;15.20;;;11.70;;
15155;SDS011;7678;50.058;8.306;2022-12-04T13:38:57;18.47;;;11.77;;
15155;SDS011;7678;50.058;8.306;2022-12-04T13:41:45;14.43;;;10.37;;
15155;SDS011;7678;50.058;8.306;2022-12-04T13:44:17;20.40;;;12.90;;
15155;SDS011;7678;50.058;8.306;2022-12-04T13:46:51;27.00;;;13.60;;
15155;SDS011;7678;50.058;8.306;2022-12-04T13:49:24;19.13;;;12.57;;
15155;SDS011;7678;50.058;8.306;2022-12-04T13:52:02;22.60;;;13.93;;
15155;SDS011;7678;50.058;8.306;2022-12-04T13:54:33;20.03;;;12.50;;
15155;SDS011;7678;50.058;8.306;2022-12-04T14:00:05;20.23;;;13.10;;
15155;SDS011;7678;50.058;8.306;2022-12-04T14:02:52;19.27;;;11.80;;
15155;SDS011;7678;50.058;8.306;2022-12-04T14:05:27;26.90;;;15.73;;
15155;SDS011;7678;50.058;8.306;2022-12-04T14:07:59;25.97;;;14.93;;
15155;SDS011;7678;50.058;8.306;2022-12-04T14:10:33;21.03;;;12.77;;
15155;SDS011;7678;50.058;8.306;2022-12-04T14:13:04;20.33;;;12.13;;
15155;SDS011;7678;50.058;8.306;2022-12-04T14:15:34;15.53;;;11.30;;
15155;SDS011;7678;50.058;8.306;2022-12-04T14:18:14;19.60;;;12.50;;
15155;SDS011;7678;50.058;8.306;2022-12-04T14:20:56;29.53;;;16.50;;
15155;SDS011;7678;50.058;8.306;2022-12-04T14:23:26;26.30;;;15.70;;
15155;SDS011;7678;50.058;8.306;2022-12-04T14:26:02;33.17;;;18.03;;
15155;SDS011;7678;50.058;8.306;2022-12-04T14:28:39;21.20;;;13.20;;
15155;SDS011;7678;50.058;8.306;2022-12-04T14:31:16;18.50;;;12.17;;
15155;SDS011;7678;50.058;8.306;2022-12-04T14:33:49;18.77;;;12.30;;
15155;SDS011;7678;50.058;8.306;2022-12-04T14:36:22;19.70;;;12.83;;
15155;SDS011;7678;50.058;8.306;2022-12-04T14:38:58;22.87;;;14.83;;
15155;SDS011;7678;50.058;8.306;2022-12-04T14:41:33;27.27;;;16.47;;
15155;SDS011;7678;50.058;8.306;2022-12-04T14:44:01;26.37;;;17.10;;
15155;SDS011;7678;50.058;8.306;2022-12-04T14:46:31;23.07;;;14.37;;
15155;SDS011;7678;50.058;8.306;2022-12-04T14:49:12;23.50;;;15.70;;
15155;SDS011;7678;50.058;8.306;2022-12-04T14:51:48;20.03;;;12.90;;
15155;SDS011;7678;50.058;8.306;2022-12-04T14:54:24;25.10;;;16.97;;
15155;SDS011;7678;50.058;8.306;2022-12-04T14:57:00;17.97;;;12.27;;
15155;SDS011;7678;50.058;8.306;2022-12-04T14:59:44;25.90;;;16.20;;
15155;SDS011;7678;50.058;8.306;2022-12-04T15:02:14;21.97;;;14.40;;
15155;SDS011;7678;50.058;8.306;2022-12-04T15:04:47;17.90;;;12.40;;
15155;SDS011;7678;50.058;8.306;2022-12-04T15:07:17;20.60;;;13.67;;
15155;SDS011;7678;50.058;8.306;2022-12-04T15:09:50;18.93;;;13.10;;
15155;SDS011;7678;50.058;8.306;2022-12-04T15:12:41;25.30;;;16.23;;
15155;SDS011;7678;50.058;8.306;2022-12-04T15:15:13;22.83;;;13.90;;
15155;SDS011;7678;50.058;8.306;2022-12-04T15:17:54;24.53;;;14.87;;